sensor_id;sensor_type;location;lat;lon;timestamp;pressure;altitude;pressure_sealevel;temperature;humidity
27613;BME280;15036;48.094;-1.690;2023-02-05T00:02:16;103601.75;;;14.65;52.24
27613;BME280;15036;48.094;-1.690;2023-02-05T00:04:41;103601.91;;;14.81;51.74
27613;BME280;15036;48.094;-1.690;2023-02-05T00:07:07;103607.34;;;14.73;52.35
27613;BME280;15036;48.094;-1.690;2023-02-05T00:09:33;103611.59;;;14.67;52.24
27613;BME280;15036;48.094;-1.690;2023-02-05T00:11:58;103601.13;;;14.89;51.83
27613;BME280;15036;48.094;-1.690;2023-02-05T00:14:25;103606.28;;;14.56;52.38
27613;BME280;15036;48.094;-1.690;2023-02-05T00:16:51;103605.19;;;14.49;53.35
27613;BME280;15036;48.094;-1.690;2023-02-05T00:19:17;103607.63;;;13.98;54.97
27613;BME280;15036;48.094;-1.690;2023-02-05T00:21:43;103599.69;;;14.32;54.12
27613;BME280;15036;48.094;-1.690;2023-02-05T00:24:09;103601.00;;;14.18;54.57
27613;BME280;15036;48.094;-1.690;2023-02-05T00:26:35;103601.06;;;13.81;55.57
27613;BME280;15036;48.094;-1.690;2023-02-05T00:29:00;103591.88;;;13.90;55.96
27613;BME280;15036;48.094;-1.690;2023-02-05T00:31:25;103587.69;;;14.23;54.83
27613;BME280;15036;48.094;-1.690;2023-02-05T00:33:51;103582.34;;;14.49;54.24
27613;BME280;15036;48.094;-1.690;2023-02-05T00:36:18;103583.03;;;14.33;54.64
27613;BME280;15036;48.094;-1.690;2023-02-05T00:38:45;103580.03;;;14.44;54.48
27613;BME280;15036;48.094;-1.690;2023-02-05T00:41:11;103580.84;;;14.54;54.15
27613;BME280;15036;48.094;-1.690;2023-02-05T00:43:38;103590.25;;;14.25;54.97
27613;BME280;15036;48.094;-1.690;2023-02-05T00:46:04;103582.94;;;14.43;54.47
27613;BME280;15036;48.094;-1.690;2023-02-05T00:48:29;103586.41;;;14.45;54.41
27613;BME280;15036;48.094;-1.690;2023-02-05T00:50:54;103575.31;;;14.10;55.58
27613;BME280;15036;48.094;-1.690;2023-02-05T00:53:21;103577.69;;;14.32;54.97
27613;BME280;15036;48.094;-1.690;2023-02-05T00:55:46;103576.13;;;14.20;55.12
27613;BME280;15036;48.094;-1.690;2023-02-05T00:58:12;103581.31;;;14.23;55.21
27613;BME280;15036;48.094;-1.690;2023-02-05T01:00:37;103582.50;;;14.47;54.60
27613;BME280;15036;48.094;-1.690;2023-02-05T01:03:03;103571.31;;;14.31;55.12
27613;BME280;15036;48.094;-1.690;2023-02-05T01:05:28;103566.91;;;14.56;54.01
27613;BME280;15036;48.094;-1.690;2023-02-05T01:07:57;103569.75;;;14.64;54.00
27613;BME280;15036;48.094;-1.690;2023-02-05T01:10:22;103564.66;;;14.51;54.39
27613;BME280;15036;48.094;-1.690;2023-02-05T01:12:48;103566.63;;;14.59;54.29
27613;BME280;15036;48.094;-1.690;2023-02-05T01:15:14;103561.38;;;14.65;53.86
27613;BME280;15036;48.094;-1.690;2023-02-05T01:17:40;103574.78;;;14.68;53.75
27613;BME280;15036;48.094;-1.690;2023-02-05T01:20:06;103565.66;;;14.33;54.39
27613;BME280;15036;48.094;-1.690;2023-02-05T01:22:32;103567.41;;;14.34;54.78
27613;BME280;15036;48.094;-1.690;2023-02-05T01:24:57;103555.78;;;14.75;53.39
27613;BME280;15036;48.094;-1.690;2023-02-05T01:27:23;103569.44;;;14.32;54.36
27613;BME280;15036;48.094;-1.690;2023-02-05T01:29:49;103567.41;;;14.24;54.95
27613;BME280;15036;48.094;-1.690;2023-02-05T01:32:14;103562.50;;;14.01;55.44
27613;BME280;15036;48.094;-1.690;2023-02-05T01:34:40;103561.59;;;14.10;55.52
27613;BME280;15036;48.094;-1.690;2023-02-05T01:37:05;103560.31;;;14.31;55.00
27613;BME280;15036;48.094;-1.690;2023-02-05T01:39:31;103565.03;;;14.39;54.81
27613;BME280;15036;48.094;-1.690;2023-02-05T01:41:56;103557.91;;;14.19;55.25
27613;BME280;15036;48.094;-1.690;2023-02-05T01:44:22;103555.47;;;14.43;54.40
27613;BME280;15036;48.094;-1.690;2023-02-05T01:46:54;103551.22;;;14.66;53.95
27613;BME280;15036;48.094;-1.690;2023-02-05T01:49:32;103547.63;;;14.65;53.96
27613;BME280;15036;48.094;-1.690;2023-02-05T01:52:02;103549.16;;;14.68;53.82
27613;BME280;15036;48.094;-1.690;2023-02-05T01:54:31;103547.63;;;14.48;54.26
27613;BME280;15036;48.094;-1.690;2023-02-05T01:57:06;103555.56;;;14.24;54.73
27613;BME280;15036;48.094;-1.690;2023-02-05T01:59:36;103556.28;;;14.26;55.05
27613;BME280;15036;48.094;-1.690;2023-02-05T02:02:03;103559.16;;;14.34;54.71
27613;BME280;15036;48.094;-1.690;2023-02-05T02:04:49;103547.47;;;14.32;54.52
27613;BME280;15036;48.094;-1.690;2023-02-05T02:07:17;103546.22;;;14.44;54.12
27613;BME280;15036;48.094;-1.690;2023-02-05T02:09:44;103539.59;;;14.72;53.52
27613;BME280;15036;48.094;-1.690;2023-02-05T02:12:13;103549.72;;;14.54;53.93
27613;BME280;15036;48.094;-1.690;2023-02-05T02:14:42;103545.59;;;14.67;53.82
27613;BME280;15036;48.094;-1.690;2023-02-05T02:17:10;103543.06;;;14.12;54.77
27613;BME280;15036;48.094;-1.690;2023-02-05T02:27:34;103552.19;;;14.12;54.82
27613;BME280;15036;48.094;-1.690;2023-02-05T02:30:24;103549.72;;;14.09;55.22
27613;BME280;15036;48.094;-1.690;2023-02-05T02:38:40;103545.72;;;14.04;55.83
27613;BME280;15036;48.094;-1.690;2023-02-05T02:46:06;103541.25;;;14.47;54.86
27613;BME280;15036;48.094;-1.690;2023-02-05T02:48:37;103548.38;;;13.96;55.76
27613;BME280;15036;48.094;-1.690;2023-02-05T02:51:06;103560.69;;;13.91;56.44
27613;BME280;15036;48.094;-1.690;2023-02-05T02:53:35;103552.38;;;14.28;55.38
27613;BME280;15036;48.094;-1.690;2023-02-05T02:56:03;103556.00;;;14.02;55.53
27613;BME280;15036;48.094;-1.690;2023-02-05T02:58:34;103550.78;;;14.26;55.37
27613;BME280;15036;48.094;-1.690;2023-02-05T03:01:03;103552.94;;;14.05;55.87
27613;BME280;15036;48.094;-1.690;2023-02-05T03:03:32;103558.31;;;13.97;55.86
27613;BME280;15036;48.094;-1.690;2023-02-05T03:06:02;103565.91;;;14.57;54.57
27613;BME280;15036;48.094;-1.690;2023-02-05T03:08:35;103580.81;;;14.37;54.93
27613;BME280;15036;48.094;-1.690;2023-02-05T03:11:09;103574.34;;;14.28;54.72
27613;BME280;15036;48.094;-1.690;2023-02-05T03:13:36;103577.13;;;14.19;55.05
27613;BME280;15036;48.094;-1.690;2023-02-05T03:16:02;103588.88;;;13.47;56.99
27613;BME280;15036;48.094;-1.690;2023-02-05T03:18:28;103606.16;;;13.67;57.39
27613;BME280;15036;48.094;-1.690;2023-02-05T03:21:00;103604.84;;;14.08;56.04
27613;BME280;15036;48.094;-1.690;2023-02-05T03:23:27;103598.69;;;13.50;57.55
27613;BME280;15036;48.094;-1.690;2023-02-05T03:25:53;103595.94;;;13.86;56.15
27613;BME280;15036;48.094;-1.690;2023-02-05T03:28:19;103596.69;;;14.16;55.86
27613;BME280;15036;48.094;-1.690;2023-02-05T03:31:54;103601.44;;;13.96;56.65
27613;BME280;15036;48.094;-1.690;2023-02-05T03:34:08;103600.59;;;14.13;55.96
27613;BME280;15036;48.094;-1.690;2023-02-05T03:39:58;103603.28;;;14.23;55.97
27613;BME280;15036;48.094;-1.690;2023-02-05T03:45:38;103610.09;;;13.64;57.72
27613;BME280;15036;48.094;-1.690;2023-02-05T03:51:01;103605.44;;;14.02;56.73
27613;BME280;15036;48.094;-1.690;2023-02-05T03:53:38;103610.53;;;14.24;56.31
27613;BME280;15036;48.094;-1.690;2023-02-05T03:56:15;103616.41;;;13.65;57.96
27613;BME280;15036;48.094;-1.690;2023-02-05T03:58:48;103608.91;;;13.67;57.58
27613;BME280;15036;48.094;-1.690;2023-02-05T04:01:15;103618.50;;;13.90;57.17
27613;BME280;15036;48.094;-1.690;2023-02-05T04:03:41;103619.91;;;14.31;56.18
27613;BME280;15036;48.094;-1.690;2023-02-05T04:06:07;103622.97;;;13.91;57.04
27613;BME280;15036;48.094;-1.690;2023-02-05T04:08:32;103632.13;;;13.82;57.49
27613;BME280;15036;48.094;-1.690;2023-02-05T04:10:58;103626.81;;;13.71;57.47
27613;BME280;15036;48.094;-1.690;2023-02-05T04:13:23;103626.31;;;13.48;58.04
27613;BME280;15036;48.094;-1.690;2023-02-05T04:15:49;103633.00;;;13.17;58.98
27613;BME280;15036;48.094;-1.690;2023-02-05T04:18:15;103627.72;;;13.62;57.82
27613;BME280;15036;48.094;-1.690;2023-02-05T04:20:41;103629.94;;;14.13;56.49
27613;BME280;15036;48.094;-1.690;2023-02-05T04:23:06;103636.78;;;14.09;56.52
27613;BME280;15036;48.094;-1.690;2023-02-05T04:25:31;103633.69;;;13.94;56.94
27613;BME280;15036;48.094;-1.690;2023-02-05T04:27:57;103637.53;;;13.64;57.17
27613;BME280;15036;48.094;-1.690;2023-02-05T04:30:22;103641.78;;;13.86;56.94
27613;BME280;15036;48.094;-1.690;2023-02-05T04:32:47;103647.22;;;13.59;57.83
27613;BME280;15036;48.094;-1.690;2023-02-05T04:35:13;103645.78;;;13.64;58.04
27613;BME280;15036;48.094;-1.690;2023-02-05T04:37:38;103638.41;;;14.02;56.84
27613;BME280;15036;48.094;-1.690;2023-02-05T04:40:04;103639.31;;;13.46;58.13
27613;BME280;15036;48.094;-1.690;2023-02-05T04:42:30;103636.75;;;13.81;57.01
27613;BME280;15036;48.094;-1.690;2023-02-05T04:44:55;103633.41;;;13.87;57.01
27613;BME280;15036;48.094;-1.690;2023-02-05T04:47:20;103629.59;;;14.25;56.24
27613;BME280;15036;48.094;-1.690;2023-02-05T04:49:46;103632.06;;;14.28;56.15
27613;BME280;15036;48.094;-1.690;2023-02-05T04:52:11;103637.88;;;13.88;56.88
27613;BME280;15036;48.094;-1.690;2023-02-05T04:54:37;103639.63;;;14.17;56.38
27613;BME280;15036;48.094;-1.690;2023-02-05T04:57:02;103624.69;;;13.55;57.65
27613;BME280;15036;48.094;-1.690;2023-02-05T04:59:28;103636.25;;;13.96;56.88
27613;BME280;15036;48.094;-1.690;2023-02-05T05:01:57;103641.63;;;12.93;59.55
27613;BME280;15036;48.094;-1.690;2023-02-05T05:04:22;103645.41;;;13.31;58.73
27613;BME280;15036;48.094;-1.690;2023-02-05T05:06:47;103633.72;;;13.75;57.37
27613;BME280;15036;48.094;-1.690;2023-02-05T05:09:13;103646.41;;;13.30;58.37
27613;BME280;15036;48.094;-1.690;2023-02-05T05:11:38;103640.75;;;13.50;58.00
27613;BME280;15036;48.094;-1.690;2023-02-05T05:14:04;103633.41;;;13.87;57.02
27613;BME280;15036;48.094;-1.690;2023-02-05T05:16:29;103620.88;;;14.12;56.63
27613;BME280;15036;48.094;-1.690;2023-02-05T05:18:55;103628.00;;;14.32;55.89
27613;BME280;15036;48.094;-1.690;2023-02-05T05:21:20;103620.34;;;13.99;56.63
27613;BME280;15036;48.094;-1.690;2023-02-05T05:23:45;103632.44;;;14.43;55.70
27613;BME280;15036;48.094;-1.690;2023-02-05T05:26:11;103623.28;;;14.15;56.53
27613;BME280;15036;48.094;-1.690;2023-02-05T05:28:37;103632.81;;;14.21;56.53
27613;BME280;15036;48.094;-1.690;2023-02-05T05:31:08;103629.06;;;14.22;56.36
27613;BME280;15036;48.094;-1.690;2023-02-05T05:33:34;103642.47;;;13.98;56.94
27613;BME280;15036;48.094;-1.690;2023-02-05T05:36:00;103633.03;;;13.63;57.77
27613;BME280;15036;48.094;-1.690;2023-02-05T05:38:25;103631.31;;;14.26;56.57
27613;BME280;15036;48.094;-1.690;2023-02-05T05:40:51;103641.50;;;13.24;59.37
27613;BME280;15036;48.094;-1.690;2023-02-05T05:43:34;103628.34;;;14.20;56.88
27613;BME280;15036;48.094;-1.690;2023-02-05T05:46:17;103632.78;;;14.30;56.61
27613;BME280;15036;48.094;-1.690;2023-02-05T05:48:51;103629.34;;;14.19;57.00
27613;BME280;15036;48.094;-1.690;2023-02-05T05:51:17;103630.91;;;14.31;56.61
27613;BME280;15036;48.094;-1.690;2023-02-05T05:53:43;103650.00;;;13.96;57.94
27613;BME280;15036;48.094;-1.690;2023-02-05T05:56:09;103651.00;;;13.48;59.37
27613;BME280;15036;48.094;-1.690;2023-02-05T05:58:34;103661.69;;;13.42;59.59
27613;BME280;15036;48.094;-1.690;2023-02-05T06:01:00;103660.19;;;13.76;58.88
27613;BME280;15036;48.094;-1.690;2023-02-05T06:03:25;103659.13;;;13.96;58.79
27613;BME280;15036;48.094;-1.690;2023-02-05T06:05:51;103668.97;;;14.26;57.78
27613;BME280;15036;48.094;-1.690;2023-02-05T06:08:16;103671.28;;;14.21;58.17
27613;BME280;15036;48.094;-1.690;2023-02-05T06:10:42;103659.22;;;14.41;57.70
27613;BME280;15036;48.094;-1.690;2023-02-05T06:13:07;103660.78;;;14.43;57.61
27613;BME280;15036;48.094;-1.690;2023-02-05T06:15:32;103656.00;;;14.09;58.61
27613;BME280;15036;48.094;-1.690;2023-02-05T06:17:58;103663.44;;;14.35;58.25
27613;BME280;15036;48.094;-1.690;2023-02-05T06:20:24;103660.53;;;14.37;58.18
27613;BME280;15036;48.094;-1.690;2023-02-05T06:22:49;103662.47;;;14.17;58.97
27613;BME280;15036;48.094;-1.690;2023-02-05T06:25:14;103669.50;;;13.92;59.54
27613;BME280;15036;48.094;-1.690;2023-02-05T06:27:40;103660.56;;;14.27;58.68
27613;BME280;15036;48.094;-1.690;2023-02-05T06:30:06;103653.31;;;14.36;58.48
27613;BME280;15036;48.094;-1.690;2023-02-05T06:32:31;103655.66;;;14.31;58.59
27613;BME280;15036;48.094;-1.690;2023-02-05T06:34:57;103650.97;;;14.41;58.71
27613;BME280;15036;48.094;-1.690;2023-02-05T06:37:22;103663.69;;;14.42;58.46
27613;BME280;15036;48.094;-1.690;2023-02-05T06:39:50;103671.53;;;14.37;58.77
27613;BME280;15036;48.094;-1.690;2023-02-05T06:42:15;103663.09;;;14.11;59.27
27613;BME280;15036;48.094;-1.690;2023-02-05T06:44:40;103662.09;;;14.03;59.70
27613;BME280;15036;48.094;-1.690;2023-02-05T06:47:06;103667.06;;;14.36;58.74
27613;BME280;15036;48.094;-1.690;2023-02-05T06:49:31;103664.31;;;14.36;58.73
27613;BME280;15036;48.094;-1.690;2023-02-05T06:51:56;103667.34;;;13.86;60.11
27613;BME280;15036;48.094;-1.690;2023-02-05T06:54:22;103666.00;;;14.10;59.43
27613;BME280;15036;48.094;-1.690;2023-02-05T06:56:48;103674.56;;;13.97;59.97
27613;BME280;15036;48.094;-1.690;2023-02-05T06:59:13;103660.66;;;14.08;59.38
27613;BME280;15036;48.094;-1.690;2023-02-05T07:01:38;103661.03;;;13.86;60.12
27613;BME280;15036;48.094;-1.690;2023-02-05T07:04:04;103672.50;;;13.62;61.07
27613;BME280;15036;48.094;-1.690;2023-02-05T07:06:30;103669.69;;;13.81;60.10
27613;BME280;15036;48.094;-1.690;2023-02-05T07:08:55;103670.88;;;13.69;60.84
27613;BME280;15036;48.094;-1.690;2023-02-05T07:11:22;103679.16;;;14.06;59.71
27613;BME280;15036;48.094;-1.690;2023-02-05T07:13:47;103669.03;;;14.07;59.84
27613;BME280;15036;48.094;-1.690;2023-02-05T07:16:13;103676.38;;;14.16;59.47
27613;BME280;15036;48.094;-1.690;2023-02-05T07:18:38;103682.88;;;14.15;59.33
27613;BME280;15036;48.094;-1.690;2023-02-05T07:21:05;103673.00;;;14.31;58.99
27613;BME280;15036;48.094;-1.690;2023-02-05T07:23:31;103682.91;;;14.05;59.48
27613;BME280;15036;48.094;-1.690;2023-02-05T07:25:56;103686.25;;;13.34;61.18
27613;BME280;15036;48.094;-1.690;2023-02-05T07:28:22;103690.47;;;13.93;59.86
27613;BME280;15036;48.094;-1.690;2023-02-05T07:30:47;103687.41;;;14.06;59.94
27613;BME280;15036;48.094;-1.690;2023-02-05T07:33:14;103684.72;;;13.87;60.33
27613;BME280;15036;48.094;-1.690;2023-02-05T07:35:40;103686.94;;;14.11;59.54
27613;BME280;15036;48.094;-1.690;2023-02-05T07:38:05;103676.31;;;14.25;59.15
27613;BME280;15036;48.094;-1.690;2023-02-05T07:40:30;103687.00;;;14.38;58.51
27613;BME280;15036;48.094;-1.690;2023-02-05T07:42:56;103680.38;;;14.31;58.87
27613;BME280;15036;48.094;-1.690;2023-02-05T07:45:21;103681.53;;;14.28;58.38
27613;BME280;15036;48.094;-1.690;2023-02-05T07:47:47;103690.72;;;14.10;58.99
27613;BME280;15036;48.094;-1.690;2023-02-05T07:50:16;103690.94;;;14.35;58.74
27613;BME280;15036;48.094;-1.690;2023-02-05T07:52:41;103699.47;;;14.32;58.79
27613;BME280;15036;48.094;-1.690;2023-02-05T07:55:07;103693.41;;;14.56;58.01
27613;BME280;15036;48.094;-1.690;2023-02-05T07:57:33;103699.34;;;14.34;58.28
27613;BME280;15036;48.094;-1.690;2023-02-05T07:59:58;103699.66;;;13.65;60.42
27613;BME280;15036;48.094;-1.690;2023-02-05T08:02:24;103700.38;;;13.67;60.46
27613;BME280;15036;48.094;-1.690;2023-02-05T08:04:49;103700.50;;;13.75;59.83
27613;BME280;15036;48.094;-1.690;2023-02-05T08:07:14;103696.81;;;14.04;59.23
27613;BME280;15036;48.094;-1.690;2023-02-05T08:09:40;103697.97;;;14.01;59.50
27613;BME280;15036;48.094;-1.690;2023-02-05T08:12:05;103698.25;;;14.08;58.87
27613;BME280;15036;48.094;-1.690;2023-02-05T08:14:31;103711.09;;;13.51;60.31
27613;BME280;15036;48.094;-1.690;2023-02-05T08:16:57;103712.38;;;13.76;59.91
27613;BME280;15036;48.094;-1.690;2023-02-05T08:19:23;103713.94;;;13.69;60.04
27613;BME280;15036;48.094;-1.690;2023-02-05T08:21:49;103716.78;;;13.96;59.83
27613;BME280;15036;48.094;-1.690;2023-02-05T08:24:14;103707.72;;;14.23;58.56
27613;BME280;15036;48.094;-1.690;2023-02-05T08:26:39;103709.34;;;14.52;57.89
27613;BME280;15036;48.094;-1.690;2023-02-05T08:29:05;103708.75;;;14.31;58.53
27613;BME280;15036;48.094;-1.690;2023-02-05T08:31:32;103708.44;;;14.61;57.35
27613;BME280;15036;48.094;-1.690;2023-02-05T08:33:58;103706.50;;;14.44;58.00
27613;BME280;15036;48.094;-1.690;2023-02-05T08:36:24;103707.44;;;14.80;56.93
27613;BME280;15036;48.094;-1.690;2023-02-05T08:38:49;103710.28;;;14.43;58.16
27613;BME280;15036;48.094;-1.690;2023-02-05T08:41:15;103723.72;;;13.90;59.02
27613;BME280;15036;48.094;-1.690;2023-02-05T08:43:45;103720.59;;;14.59;57.75
27613;BME280;15036;48.094;-1.690;2023-02-05T08:46:13;103714.84;;;14.52;57.37
27613;BME280;15036;48.094;-1.690;2023-02-05T08:48:39;103721.44;;;14.87;56.68
27613;BME280;15036;48.094;-1.690;2023-02-05T08:51:04;103721.56;;;14.40;58.60
27613;BME280;15036;48.094;-1.690;2023-02-05T08:53:31;103715.81;;;14.61;57.72
27613;BME280;15036;48.094;-1.690;2023-02-05T08:55:58;103720.59;;;14.59;58.14
27613;BME280;15036;48.094;-1.690;2023-02-05T08:58:25;103712.16;;;14.43;58.60
27613;BME280;15036;48.094;-1.690;2023-02-05T09:00:51;103722.53;;;14.03;59.40
27613;BME280;15036;48.094;-1.690;2023-02-05T09:03:16;103726.03;;;14.68;58.12
27613;BME280;15036;48.094;-1.690;2023-02-05T09:05:42;103725.16;;;14.68;58.18
27613;BME280;15036;48.094;-1.690;2023-02-05T09:08:07;103724.22;;;14.23;59.08
27613;BME280;15036;48.094;-1.690;2023-02-05T09:10:33;103730.00;;;14.29;59.35
27613;BME280;15036;48.094;-1.690;2023-02-05T09:12:58;103719.22;;;14.45;59.38
27613;BME280;15036;48.094;-1.690;2023-02-05T09:15:23;103716.91;;;14.68;58.79
27613;BME280;15036;48.094;-1.690;2023-02-05T09:17:49;103709.13;;;14.91;58.29
27613;BME280;15036;48.094;-1.690;2023-02-05T09:20:14;103714.13;;;14.50;59.59
27613;BME280;15036;48.094;-1.690;2023-02-05T09:22:40;103705.09;;;14.85;58.37
27613;BME280;15036;48.094;-1.690;2023-02-05T09:25:06;103715.09;;;15.04;57.87
27613;BME280;15036;48.094;-1.690;2023-02-05T09:27:31;103713.22;;;15.22;57.55
27613;BME280;15036;48.094;-1.690;2023-02-05T09:29:56;103718.63;;;14.96;58.34
27613;BME280;15036;48.094;-1.690;2023-02-05T09:32:22;103714.16;;;15.30;57.89
27613;BME280;15036;48.094;-1.690;2023-02-05T09:34:48;103722.06;;;15.43;57.56
27613;BME280;15036;48.094;-1.690;2023-02-05T09:37:16;103717.38;;;15.08;58.69
27613;BME280;15036;48.094;-1.690;2023-02-05T09:39:42;103714.09;;;15.22;58.69
27613;BME280;15036;48.094;-1.690;2023-02-05T09:42:12;103715.53;;;14.82;60.19
27613;BME280;15036;48.094;-1.690;2023-02-05T09:47:19;103711.22;;;15.67;58.46
27613;BME280;15036;48.094;-1.690;2023-02-05T09:52:32;103704.53;;;15.70;58.60
27613;BME280;15036;48.094;-1.690;2023-02-05T09:55:02;103713.84;;;15.33;59.27
27613;BME280;15036;48.094;-1.690;2023-02-05T09:57:39;103715.34;;;15.45;59.63
27613;BME280;15036;48.094;-1.690;2023-02-05T10:06:03;103702.50;;;15.97;59.26
27613;BME280;15036;48.094;-1.690;2023-02-05T10:08:55;103698.53;;;15.48;59.96
27613;BME280;15036;48.094;-1.690;2023-02-05T10:11:41;103702.97;;;15.93;59.03
27613;BME280;15036;48.094;-1.690;2023-02-05T10:14:37;103709.75;;;15.98;58.72
27613;BME280;15036;48.094;-1.690;2023-02-05T10:25:32;103698.25;;;16.78;57.22
27613;BME280;15036;48.094;-1.690;2023-02-05T10:28:20;103688.97;;;16.45;57.03
27613;BME280;15036;48.094;-1.690;2023-02-05T10:31:03;103699.94;;;16.29;56.99
27613;BME280;15036;48.094;-1.690;2023-02-05T10:33:49;103703.09;;;16.09;57.89
27613;BME280;15036;48.094;-1.690;2023-02-05T10:36:23;103706.59;;;16.53;56.15
27613;BME280;15036;48.094;-1.690;2023-02-05T10:38:52;103713.81;;;16.87;55.80
27613;BME280;15036;48.094;-1.690;2023-02-05T10:44:38;103712.59;;;16.90;55.73
27613;BME280;15036;48.094;-1.690;2023-02-05T10:47:11;103706.31;;;16.30;56.85
27613;BME280;15036;48.094;-1.690;2023-02-05T10:49:44;103709.72;;;16.24;56.79
27613;BME280;15036;48.094;-1.690;2023-02-05T10:52:13;103712.44;;;16.16;56.79
27613;BME280;15036;48.094;-1.690;2023-02-05T10:54:39;103718.31;;;16.21;56.52
27613;BME280;15036;48.094;-1.690;2023-02-05T10:57:17;103717.78;;;16.17;56.38
27613;BME280;15036;48.094;-1.690;2023-02-05T10:59:52;103716.63;;;15.94;56.61
27613;BME280;15036;48.094;-1.690;2023-02-05T11:02:20;103717.91;;;15.82;56.75
27613;BME280;15036;48.094;-1.690;2023-02-05T11:04:51;103731.84;;;16.06;55.88
27613;BME280;15036;48.094;-1.690;2023-02-05T11:07:33;103731.19;;;16.46;55.14
27613;BME280;15036;48.094;-1.690;2023-02-05T11:12:43;103722.94;;;16.88;53.79
27613;BME280;15036;48.094;-1.690;2023-02-05T11:17:50;103741.28;;;16.55;54.21
27613;BME280;15036;48.094;-1.690;2023-02-05T11:22:42;103715.34;;;16.40;53.57
27613;BME280;15036;48.094;-1.690;2023-02-05T11:25:19;103723.66;;;15.97;53.83
27613;BME280;15036;48.094;-1.690;2023-02-05T11:27:56;103719.56;;;16.01;54.01
27613;BME280;15036;48.094;-1.690;2023-02-05T11:30:27;103709.28;;;16.44;52.99
27613;BME280;15036;48.094;-1.690;2023-02-05T11:32:55;103699.25;;;16.61;52.45
27613;BME280;15036;48.094;-1.690;2023-02-05T11:35:25;103696.38;;;16.11;52.96
27613;BME280;15036;48.094;-1.690;2023-02-05T11:38:07;103691.28;;;16.24;52.02
27613;BME280;15036;48.094;-1.690;2023-02-05T11:40:34;103690.25;;;16.59;51.33
27613;BME280;15036;48.094;-1.690;2023-02-05T11:43:16;103689.69;;;17.13;50.23
27613;BME280;15036;48.094;-1.690;2023-02-05T11:45:48;103686.09;;;17.29;49.26
27613;BME280;15036;48.094;-1.690;2023-02-05T11:50:57;103689.00;;;17.03;49.11
27613;BME280;15036;48.094;-1.690;2023-02-05T11:53:23;103690.72;;;17.04;48.98
27613;BME280;15036;48.094;-1.690;2023-02-05T11:55:57;103688.41;;;16.84;49.40
27613;BME280;15036;48.094;-1.690;2023-02-05T11:58:27;103688.22;;;16.61;49.64
27613;BME280;15036;48.094;-1.690;2023-02-05T12:00:55;103694.97;;;16.41;50.18
27613;BME280;15036;48.094;-1.690;2023-02-05T12:03:24;103678.94;;;16.36;50.96
27613;BME280;15036;48.094;-1.690;2023-02-05T12:05:59;103671.63;;;16.53;50.18
27613;BME280;15036;48.094;-1.690;2023-02-05T12:08:40;103675.09;;;16.63;50.09
27613;BME280;15036;48.094;-1.690;2023-02-05T12:14:27;103665.53;;;17.15;48.69
27613;BME280;15036;48.094;-1.690;2023-02-05T12:17:03;103671.41;;;17.20;47.86
27613;BME280;15036;48.094;-1.690;2023-02-05T12:25:24;103663.13;;;17.12;48.05
27613;BME280;15036;48.094;-1.690;2023-02-05T12:28:01;103660.38;;;17.45;46.76
27613;BME280;15036;48.094;-1.690;2023-02-05T12:36:27;103633.69;;;18.00;45.15
27613;BME280;15036;48.094;-1.690;2023-02-05T12:42:20;103636.22;;;17.55;45.00
27613;BME280;15036;48.094;-1.690;2023-02-05T12:53:35;103621.03;;;18.13;44.06
27613;BME280;15036;48.094;-1.690;2023-02-05T12:58:41;103607.34;;;18.59;43.60
27613;BME280;15036;48.094;-1.690;2023-02-05T13:01:16;103604.13;;;18.39;43.88
27613;BME280;15036;48.094;-1.690;2023-02-05T13:03:53;103605.75;;;18.64;43.28
27613;BME280;15036;48.094;-1.690;2023-02-05T13:06:32;103601.97;;;18.18;43.97
27613;BME280;15036;48.094;-1.690;2023-02-05T13:09:04;103600.31;;;18.09;43.17
27613;BME280;15036;48.094;-1.690;2023-02-05T13:11:34;103601.63;;;17.75;43.91
27613;BME280;15036;48.094;-1.690;2023-02-05T13:16:40;103591.53;;;17.98;43.27
27613;BME280;15036;48.094;-1.690;2023-02-05T13:19:24;103590.00;;;17.95;42.84
27613;BME280;15036;48.094;-1.690;2023-02-05T13:21:52;103597.28;;;17.88;42.97
27613;BME280;15036;48.094;-1.690;2023-02-05T13:24:43;103594.78;;;17.55;43.10
27613;BME280;15036;48.094;-1.690;2023-02-05T13:27:33;103582.84;;;17.62;42.47
27613;BME280;15036;48.094;-1.690;2023-02-05T13:30:22;103583.44;;;17.96;41.31
27613;BME280;15036;48.094;-1.690;2023-02-05T13:32:52;103580.91;;;17.71;41.12
27613;BME280;15036;48.094;-1.690;2023-02-05T13:35:20;103568.25;;;17.92;39.43
27613;BME280;15036;48.094;-1.690;2023-02-05T13:46:35;103541.06;;;18.65;38.23
27613;BME280;15036;48.094;-1.690;2023-02-05T13:58:17;103528.56;;;18.39;38.74
27613;BME280;15036;48.094;-1.690;2023-02-05T14:00:17;103529.53;;;19.14;37.58
27613;BME280;15036;48.094;-1.690;2023-02-05T14:02:45;103537.16;;;19.34;36.95
27613;BME280;15036;48.094;-1.690;2023-02-05T14:05:13;103539.25;;;18.95;37.23
27613;BME280;15036;48.094;-1.690;2023-02-05T14:07:47;103534.25;;;19.13;36.60
27613;BME280;15036;48.094;-1.690;2023-02-05T14:12:49;103540.78;;;18.97;36.39
27613;BME280;15036;48.094;-1.690;2023-02-05T14:22:54;103521.25;;;19.28;36.35
27613;BME280;15036;48.094;-1.690;2023-02-05T14:33:38;103529.28;;;18.86;36.15
27613;BME280;15036;48.094;-1.690;2023-02-05T14:38:50;103529.97;;;18.65;36.12
27613;BME280;15036;48.094;-1.690;2023-02-05T14:43:55;103518.00;;;18.19;35.78
27613;BME280;15036;48.094;-1.690;2023-02-05T14:46:42;103529.16;;;18.34;35.99
27613;BME280;15036;48.094;-1.690;2023-02-05T14:51:55;103525.38;;;18.58;35.81
27613;BME280;15036;48.094;-1.690;2023-02-05T14:54:47;103533.34;;;18.53;35.74
27613;BME280;15036;48.094;-1.690;2023-02-05T14:59:52;103503.84;;;19.57;33.87
27613;BME280;15036;48.094;-1.690;2023-02-05T15:10:42;103513.25;;;19.33;34.11
27613;BME280;15036;48.094;-1.690;2023-02-05T15:13:11;103512.00;;;19.21;34.27
27613;BME280;15036;48.094;-1.690;2023-02-05T15:15:37;103523.25;;;19.20;34.32
27613;BME280;15036;48.094;-1.690;2023-02-05T15:18:28;103526.47;;;18.71;34.99